sensor_id;sensor_type;location;lat;lon;timestamp;temperature;humidity
15949;DHT22;14848;50.954;6.642;2022-09-03T00:00:17;18.40;99.90
15949;DHT22;14848;50.954;6.642;2022-09-03T00:06:06;18.30;99.90
15949;DHT22;14848;50.954;6.642;2022-09-03T00:09:06;18.20;99.90
15949;DHT22;14848;50.954;6.642;2022-09-03T00:12:08;18.20;99.90
15949;DHT22;14848;50.954;6.642;2022-09-03T00:17:23;18.20;99.90
15949;DHT22;14848;50.954;6.642;2022-09-03T00:19:57;18.20;99.90
15949;DHT22;14848;50.954;6.642;2022-09-03T00:22:35;18.10;99.90
15949;DHT22;14848;50.954;6.642;2022-09-03T00:25:04;18.10;99.90
15949;DHT22;14848;50.954;6.642;2022-09-03T00:27:36;18.10;99.90
15949;DHT22;14848;50.954;6.642;2022-09-03T00:33:04;18.10;99.90
15949;DHT22;14848;50.954;6.642;2022-09-03T00:35:49;18.10;99.90
15949;DHT22;14848;50.954;6.642;2022-09-03T00:38:18;18.10;99.90
15949;DHT22;14848;50.954;6.642;2022-09-03T00:59:49;17.80;99.90
15949;DHT22;14848;50.954;6.642;2022-09-03T01:29:01;17.60;99.90
15949;DHT22;14848;50.954;6.642;2022-09-03T01:34:10;17.50;99.90
15949;DHT22;14848;50.954;6.642;2022-09-03T01:36:48;17.50;99.90
15949;DHT22;14848;50.954;6.642;2022-09-03T02:06:25;16.40;99.90
15949;DHT22;14848;50.954;6.642;2022-09-03T02:08:52;17.20;99.90
15949;DHT22;14848;50.954;6.642;2022-09-03T02:11:17;17.10;99.90
15949;DHT22;14848;50.954;6.642;2022-09-03T02:13:46;17.20;99.90
15949;DHT22;14848;50.954;6.642;2022-09-03T02:16:30;17.10;99.90
15949;DHT22;14848;50.954;6.642;2022-09-03T02:19:03;17.10;99.90
15949;DHT22;14848;50.954;6.642;2022-09-03T02:21:37;17.10;99.90
15949;DHT22;14848;50.954;6.642;2022-09-03T02:24:04;17.10;99.90
15949;DHT22;14848;50.954;6.642;2022-09-03T02:26:30;17.10;99.90
15949;DHT22;14848;50.954;6.642;2022-09-03T02:28:57;17.10;99.90
15949;DHT22;14848;50.954;6.642;2022-09-03T02:31:22;17.10;99.90
15949;DHT22;14848;50.954;6.642;2022-09-03T02:33:49;17.10;99.90
15949;DHT22;14848;50.954;6.642;2022-09-03T02:36:18;17.00;99.90
15949;DHT22;14848;50.954;6.642;2022-09-03T02:38:46;17.00;99.90
15949;DHT22;14848;50.954;6.642;2022-09-03T02:41:12;17.00;99.90
15949;DHT22;14848;50.954;6.642;2022-09-03T02:44:12;17.00;99.90
15949;DHT22;14848;50.954;6.642;2022-09-03T02:46:59;17.00;99.90
15949;DHT22;14848;50.954;6.642;2022-09-03T02:49:26;17.30;99.90
15949;DHT22;14848;50.954;6.642;2022-09-03T02:51:57;17.00;99.90
15949;DHT22;14848;50.954;6.642;2022-09-03T02:54:25;17.00;99.90
15949;DHT22;14848;50.954;6.642;2022-09-03T02:56:52;16.90;99.90
15949;DHT22;14848;50.954;6.642;2022-09-03T02:59:17;16.90;99.90
15949;DHT22;14848;50.954;6.642;2022-09-03T03:01:43;16.90;99.90
15949;DHT22;14848;50.954;6.642;2022-09-03T03:04:09;16.90;99.90
15949;DHT22;14848;50.954;6.642;2022-09-03T03:06:34;16.90;99.90
15949;DHT22;14848;50.954;6.642;2022-09-03T03:09:00;16.90;99.90
15949;DHT22;14848;50.954;6.642;2022-09-03T03:11:29;17.50;99.90
15949;DHT22;14848;50.954;6.642;2022-09-03T03:13:54;16.90;99.90
15949;DHT22;14848;50.954;6.642;2022-09-03T03:16:20;16.90;99.90
15949;DHT22;14848;50.954;6.642;2022-09-03T03:18:45;17.00;99.90
15949;DHT22;14848;50.954;6.642;2022-09-03T03:21:12;17.00;99.90
15949;DHT22;14848;50.954;6.642;2022-09-03T03:23:38;17.00;99.90
15949;DHT22;14848;50.954;6.642;2022-09-03T03:26:05;17.00;99.90
15949;DHT22;14848;50.954;6.642;2022-09-03T03:28:31;17.00;99.90
15949;DHT22;14848;50.954;6.642;2022-09-03T03:31:19;16.90;99.90
15949;DHT22;14848;50.954;6.642;2022-09-03T03:33:44;17.00;99.90
15949;DHT22;14848;50.954;6.642;2022-09-03T03:36:10;16.90;99.90
15949;DHT22;14848;50.954;6.642;2022-09-03T03:38:37;16.90;99.90
15949;DHT22;14848;50.954;6.642;2022-09-03T03:41:10;16.90;99.90
15949;DHT22;14848;50.954;6.642;2022-09-03T03:43:36;16.90;99.90
15949;DHT22;14848;50.954;6.642;2022-09-03T03:46:02;16.90;99.90
15949;DHT22;14848;50.954;6.642;2022-09-03T03:48:27;16.90;99.90
15949;DHT22;14848;50.954;6.642;2022-09-03T03:50:53;16.90;99.90
15949;DHT22;14848;50.954;6.642;2022-09-03T03:53:18;16.80;99.90
15949;DHT22;14848;50.954;6.642;2022-09-03T03:55:54;16.90;99.90
15949;DHT22;14848;50.954;6.642;2022-09-03T03:58:20;16.90;99.90
15949;DHT22;14848;50.954;6.642;2022-09-03T04:00:45;16.90;99.90
15949;DHT22;14848;50.954;6.642;2022-09-03T04:03:13;16.90;99.90
15949;DHT22;14848;50.954;6.642;2022-09-03T04:05:39;16.80;99.90
15949;DHT22;14848;50.954;6.642;2022-09-03T04:08:04;16.90;99.90
15949;DHT22;14848;50.954;6.642;2022-09-03T04:10:30;16.90;99.90
15949;DHT22;14848;50.954;6.642;2022-09-03T04:12:56;16.90;99.90
15949;DHT22;14848;50.954;6.642;2022-09-03T04:15:21;16.90;99.90
15949;DHT22;14848;50.954;6.642;2022-09-03T04:17:47;16.90;99.90
15949;DHT22;14848;50.954;6.642;2022-09-03T04:20:13;16.90;99.90
15949;DHT22;14848;50.954;6.642;2022-09-03T04:22:38;16.90;99.90
15949;DHT22;14848;50.954;6.642;2022-09-03T04:25:04;16.90;99.90
15949;DHT22;14848;50.954;6.642;2022-09-03T04:27:29;17.10;99.90
15949;DHT22;14848;50.954;6.642;2022-09-03T04:29:55;16.90;99.90
15949;DHT22;14848;50.954;6.642;2022-09-03T04:32:21;17.00;99.90
15949;DHT22;14848;50.954;6.642;2022-09-03T04:35:05;17.00;99.90
15949;DHT22;14848;50.954;6.642;2022-09-03T04:37:31;16.90;99.90
15949;DHT22;14848;50.954;6.642;2022-09-03T04:39:56;16.90;99.90
15949;DHT22;14848;50.954;6.642;2022-09-03T04:42:23;16.90;99.90
15949;DHT22;14848;50.954;6.642;2022-09-03T04:44:48;16.90;99.90
15949;DHT22;14848;50.954;6.642;2022-09-03T04:47:14;16.90;99.90
15949;DHT22;14848;50.954;6.642;2022-09-03T04:49:40;16.90;99.90
15949;DHT22;14848;50.954;6.642;2022-09-03T04:52:05;17.00;99.90
15949;DHT22;14848;50.954;6.642;2022-09-03T04:54:31;17.00;99.90
15949;DHT22;14848;50.954;6.642;2022-09-03T04:56:57;17.00;99.90
15949;DHT22;14848;50.954;6.642;2022-09-03T04:59:22;16.90;99.90
15949;DHT22;14848;50.954;6.642;2022-09-03T05:01:48;16.90;99.90
15949;DHT22;14848;50.954;6.642;2022-09-03T05:04:13;17.00;99.90
15949;DHT22;14848;50.954;6.642;2022-09-03T05:06:39;17.00;99.90
15949;DHT22;14848;50.954;6.642;2022-09-03T05:09:04;17.00;99.90
15949;DHT22;14848;50.954;6.642;2022-09-03T05:11:30;17.00;99.90
15949;DHT22;14848;50.954;6.642;2022-09-03T05:13:56;17.00;99.90
15949;DHT22;14848;50.954;6.642;2022-09-03T05:16:23;17.00;99.90
15949;DHT22;14848;50.954;6.642;2022-09-03T05:18:52;17.00;99.90
15949;DHT22;14848;50.954;6.642;2022-09-03T05:21:18;17.00;99.90
15949;DHT22;14848;50.954;6.642;2022-09-03T05:23:44;17.00;99.90
15949;DHT22;14848;50.954;6.642;2022-09-03T05:26:11;17.00;99.90
15949;DHT22;14848;50.954;6.642;2022-09-03T05:28:39;17.40;99.90
15949;DHT22;14848;50.954;6.642;2022-09-03T05:31:09;17.30;99.90
15949;DHT22;14848;50.954;6.642;2022-09-03T05:33:35;17.60;99.90
15949;DHT22;14848;50.954;6.642;2022-09-03T05:36:02;18.00;99.90
15949;DHT22;14848;50.954;6.642;2022-09-03T05:38:28;17.80;99.90
15949;DHT22;14848;50.954;6.642;2022-09-03T05:40:57;18.00;99.90
15949;DHT22;14848;50.954;6.642;2022-09-03T05:43:22;18.80;99.90
15949;DHT22;14848;50.954;6.642;2022-09-03T05:45:48;19.90;99.90
15949;DHT22;14848;50.954;6.642;2022-09-03T05:48:13;20.40;99.90
15949;DHT22;14848;50.954;6.642;2022-09-03T05:50:39;20.30;99.90
15949;DHT22;14848;50.954;6.642;2022-09-03T05:53:05;20.70;99.90
15949;DHT22;14848;50.954;6.642;2022-09-03T05:55:30;21.20;99.90
15949;DHT22;14848;50.954;6.642;2022-09-03T05:57:56;21.30;99.90
15949;DHT22;14848;50.954;6.642;2022-09-03T06:00:22;21.70;99.90
15949;DHT22;14848;50.954;6.642;2022-09-03T06:02:51;21.20;99.90
15949;DHT22;14848;50.954;6.642;2022-09-03T06:05:18;20.20;99.90
15949;DHT22;14848;50.954;6.642;2022-09-03T06:07:44;19.40;99.90
15949;DHT22;14848;50.954;6.642;2022-09-03T06:10:13;19.00;99.90
15949;DHT22;14848;50.954;6.642;2022-09-03T06:12:41;18.60;99.90
15949;DHT22;14848;50.954;6.642;2022-09-03T06:15:07;18.30;99.90
15949;DHT22;14848;50.954;6.642;2022-09-03T06:17:32;18.10;99.90
15949;DHT22;14848;50.954;6.642;2022-09-03T06:19:58;18.30;99.90
15949;DHT22;14848;50.954;6.642;2022-09-03T06:22:24;18.30;99.90
15949;DHT22;14848;50.954;6.642;2022-09-03T06:24:52;18.30;99.90
15949;DHT22;14848;50.954;6.642;2022-09-03T06:27:18;18.40;99.90
15949;DHT22;14848;50.954;6.642;2022-09-03T06:29:45;18.60;99.90
15949;DHT22;14848;50.954;6.642;2022-09-03T06:32:11;18.80;99.90
15949;DHT22;14848;50.954;6.642;2022-09-03T06:34:37;18.80;99.90
15949;DHT22;14848;50.954;6.642;2022-09-03T06:37:02;18.70;99.90
15949;DHT22;14848;50.954;6.642;2022-09-03T06:39:28;18.90;99.90
15949;DHT22;14848;50.954;6.642;2022-09-03T06:41:54;19.10;99.90
15949;DHT22;14848;50.954;6.642;2022-09-03T06:44:19;19.00;99.90
15949;DHT22;14848;50.954;6.642;2022-09-03T06:54:07;18.50;99.90
15949;DHT22;14848;50.954;6.642;2022-09-03T06:56:35;18.70;99.90
15949;DHT22;14848;50.954;6.642;2022-09-03T06:59:06;18.80;99.90
15949;DHT22;14848;50.954;6.642;2022-09-03T07:01:33;18.80;99.90
15949;DHT22;14848;50.954;6.642;2022-09-03T07:04:02;18.80;99.90
15949;DHT22;14848;50.954;6.642;2022-09-03T07:06:30;18.90;99.90
15949;DHT22;14848;50.954;6.642;2022-09-03T07:08:56;19.00;99.90
15949;DHT22;14848;50.954;6.642;2022-09-03T07:11:25;18.90;99.90
15949;DHT22;14848;50.954;6.642;2022-09-03T07:13:52;18.90;99.90
15949;DHT22;14848;50.954;6.642;2022-09-03T07:16:22;18.80;99.90
15949;DHT22;14848;50.954;6.642;2022-09-03T07:18:49;18.90;99.90
15949;DHT22;14848;50.954;6.642;2022-09-03T07:21:17;18.90;99.90
15949;DHT22;14848;50.954;6.642;2022-09-03T07:23:44;18.90;99.90
15949;DHT22;14848;50.954;6.642;2022-09-03T07:26:15;18.90;99.90
15949;DHT22;14848;50.954;6.642;2022-09-03T07:28:42;18.80;99.90
15949;DHT22;14848;50.954;6.642;2022-09-03T07:31:13;18.70;99.90
15949;DHT22;14848;50.954;6.642;2022-09-03T07:33:40;18.70;99.90
15949;DHT22;14848;50.954;6.642;2022-09-03T07:36:12;18.70;99.90
15949;DHT22;14848;50.954;6.642;2022-09-03T07:38:39;18.70;99.90
15949;DHT22;14848;50.954;6.642;2022-09-03T07:41:07;18.70;99.90
15949;DHT22;14848;50.954;6.642;2022-09-03T07:43:36;18.70;99.90
15949;DHT22;14848;50.954;6.642;2022-09-03T07:46:05;18.80;99.90
15949;DHT22;14848;50.954;6.642;2022-09-03T07:51:00;18.80;99.90
15949;DHT22;14848;50.954;6.642;2022-09-03T07:53:28;18.80;99.90
15949;DHT22;14848;50.954;6.642;2022-09-03T07:56:03;18.80;99.90
15949;DHT22;14848;50.954;6.642;2022-09-03T07:58:30;18.90;99.90
15949;DHT22;14848;50.954;6.642;2022-09-03T08:00:57;19.00;99.90
15949;DHT22;14848;50.954;6.642;2022-09-03T08:03:22;19.00;99.90
15949;DHT22;14848;50.954;6.642;2022-09-03T08:05:48;19.20;99.90
15949;DHT22;14848;50.954;6.642;2022-09-03T08:08:14;19.30;99.90
15949;DHT22;14848;50.954;6.642;2022-09-03T08:10:40;19.50;99.90
15949;DHT22;14848;50.954;6.642;2022-09-03T08:13:06;19.70;99.90
15949;DHT22;14848;50.954;6.642;2022-09-03T08:18:01;20.10;99.90
15949;DHT22;14848;50.954;6.642;2022-09-03T08:23:00;20.50;99.90
15949;DHT22;14848;50.954;6.642;2022-09-03T08:25:27;20.70;99.90
15949;DHT22;14848;50.954;6.642;2022-09-03T08:27:53;20.80;99.90
15949;DHT22;14848;50.954;6.642;2022-09-03T08:30:18;21.10;99.90
15949;DHT22;14848;50.954;6.642;2022-09-03T08:32:45;21.10;99.90
15949;DHT22;14848;50.954;6.642;2022-09-03T08:35:11;21.10;99.90
15949;DHT22;14848;50.954;6.642;2022-09-03T08:37:37;21.20;99.90
15949;DHT22;14848;50.954;6.642;2022-09-03T08:40:04;21.40;99.90
15949;DHT22;14848;50.954;6.642;2022-09-03T08:43:01;21.50;99.90
15949;DHT22;14848;50.954;6.642;2022-09-03T08:45:33;21.40;99.90
15949;DHT22;14848;50.954;6.642;2022-09-03T08:48:18;21.60;99.90
15949;DHT22;14848;50.954;6.642;2022-09-03T08:50:49;21.70;99.90
15949;DHT22;14848;50.954;6.642;2022-09-03T08:56:07;21.70;99.90
15949;DHT22;14848;50.954;6.642;2022-09-03T08:58:35;21.70;99.90
15949;DHT22;14848;50.954;6.642;2022-09-03T09:07:28;21.60;99.90
15949;DHT22;14848;50.954;6.642;2022-09-03T09:15:43;21.70;99.90
15949;DHT22;14848;50.954;6.642;2022-09-03T09:18:22;21.80;99.90
15949;DHT22;14848;50.954;6.642;2022-09-03T09:20:54;21.70;99.90
15949;DHT22;14848;50.954;6.642;2022-09-03T09:25:53;21.70;99.90
15949;DHT22;14848;50.954;6.642;2022-09-03T09:28:25;21.70;99.90
15949;DHT22;14848;50.954;6.642;2022-09-03T09:30:55;21.70;99.90
15949;DHT22;14848;50.954;6.642;2022-09-03T09:33:21;21.80;99.90
15949;DHT22;14848;50.954;6.642;2022-09-03T09:35:48;21.90;99.90
15949;DHT22;14848;50.954;6.642;2022-09-03T09:38:14;22.10;99.90
15949;DHT22;14848;50.954;6.642;2022-09-03T09:40:51;22.10;99.90
15949;DHT22;14848;50.954;6.642;2022-09-03T09:43:18;22.20;99.90
15949;DHT22;14848;50.954;6.642;2022-09-03T09:45:51;22.50;99.90
15949;DHT22;14848;50.954;6.642;2022-09-03T09:48:27;22.70;99.90
15949;DHT22;14848;50.954;6.642;2022-09-03T09:51:12;22.80;99.90
15949;DHT22;14848;50.954;6.642;2022-09-03T09:53:39;22.90;99.90
15949;DHT22;14848;50.954;6.642;2022-09-03T09:56:05;23.10;99.90
15949;DHT22;14848;50.954;6.642;2022-09-03T09:58:33;23.20;99.90
15949;DHT22;14848;50.954;6.642;2022-09-03T10:01:11;23.20;99.90
15949;DHT22;14848;50.954;6.642;2022-09-03T10:03:54;23.00;99.90
15949;DHT22;14848;50.954;6.642;2022-09-03T10:06:25;22.80;99.90
15949;DHT22;14848;50.954;6.642;2022-09-03T10:09:19;22.90;99.90
15949;DHT22;14848;50.954;6.642;2022-09-03T10:14:52;22.90;99.90
15949;DHT22;14848;50.954;6.642;2022-09-03T10:17:26;22.90;99.90
15949;DHT22;14848;50.954;6.642;2022-09-03T10:20:17;23.10;99.90
15949;DHT22;14848;50.954;6.642;2022-09-03T10:28:38;23.60;99.90
15949;DHT22;14848;50.954;6.642;2022-09-03T10:39:08;23.70;99.90
15949;DHT22;14848;50.954;6.642;2022-09-03T10:53:20;23.30;99.90
15949;DHT22;14848;50.954;6.642;2022-09-03T11:06:54;23.40;99.90
15949;DHT22;14848;50.954;6.642;2022-09-03T11:09:45;23.40;99.90
15949;DHT22;14848;50.954;6.642;2022-09-03T11:12:19;23.60;99.90
15949;DHT22;14848;50.954;6.642;2022-09-03T11:15:20;23.80;99.90
15949;DHT22;14848;50.954;6.642;2022-09-03T11:22:46;23.90;99.90
15949;DHT22;14848;50.954;6.642;2022-09-03T11:30:14;24.00;99.90
15949;DHT22;14848;50.954;6.642;2022-09-03T11:32:59;24.10;99.90
15949;DHT22;14848;50.954;6.642;2022-09-03T11:38:03;23.70;99.90
15949;DHT22;14848;50.954;6.642;2022-09-03T11:40:34;23.70;99.90
15949;DHT22;14848;50.954;6.642;2022-09-03T11:46:04;23.90;99.90
15949;DHT22;14848;50.954;6.642;2022-09-03T11:53:53;23.80;99.90
15949;DHT22;14848;50.954;6.642;2022-09-03T11:56:20;24.00;99.90
15949;DHT22;14848;50.954;6.642;2022-09-03T11:58:46;24.00;99.90
15949;DHT22;14848;50.954;6.642;2022-09-03T12:01:23;24.10;99.90
15949;DHT22;14848;50.954;6.642;2022-09-03T12:04:00;24.20;99.90
15949;DHT22;14848;50.954;6.642;2022-09-03T12:09:38;24.30;99.90
15949;DHT22;14848;50.954;6.642;2022-09-03T12:12:29;24.40;99.90
15949;DHT22;14848;50.954;6.642;2022-09-03T12:15:30;24.60;99.90
15949;DHT22;14848;50.954;6.642;2022-09-03T12:18:17;24.60;99.90
15949;DHT22;14848;50.954;6.642;2022-09-03T12:21:05;24.30;99.90
15949;DHT22;14848;50.954;6.642;2022-09-03T12:26:09;24.50;99.90
15949;DHT22;14848;50.954;6.642;2022-09-03T12:28:41;24.70;99.90
15949;DHT22;14848;50.954;6.642;2022-09-03T12:33:44;24.70;99.90
15949;DHT22;14848;50.954;6.642;2022-09-03T12:36:10;24.50;99.90
15949;DHT22;14848;50.954;6.642;2022-09-03T12:38:38;24.20;99.90
15949;DHT22;14848;50.954;6.642;2022-09-03T12:41:03;24.30;99.90
15949;DHT22;14848;50.954;6.642;2022-09-03T12:43:29;24.60;99.90
15949;DHT22;14848;50.954;6.642;2022-09-03T12:45:55;24.60;99.90
15949;DHT22;14848;50.954;6.642;2022-09-03T12:48:21;24.80;99.90
15949;DHT22;14848;50.954;6.642;2022-09-03T12:50:48;24.80;99.90
15949;DHT22;14848;50.954;6.642;2022-09-03T12:53:25;24.80;99.90
15949;DHT22;14848;50.954;6.642;2022-09-03T12:55:55;24.80;99.90
15949;DHT22;14848;50.954;6.642;2022-09-03T12:58:24;24.90;99.90
15949;DHT22;14848;50.954;6.642;2022-09-03T13:01:17;24.80;99.90
15949;DHT22;14848;50.954;6.642;2022-09-03T13:03:55;24.80;99.90
15949;DHT22;14848;50.954;6.642;2022-09-03T13:06:29;24.90;99.90
15949;DHT22;14848;50.954;6.642;2022-09-03T13:09:02;24.90;99.90
15949;DHT22;14848;50.954;6.642;2022-09-03T13:11:33;25.00;99.90
15949;DHT22;14848;50.954;6.642;2022-09-03T13:14:09;25.10;99.90
15949;DHT22;14848;50.954;6.642;2022-09-03T13:22:14;24.90;99.90
15949;DHT22;14848;50.954;6.642;2022-09-03T13:24:50;25.00;99.90
15949;DHT22;14848;50.954;6.642;2022-09-03T13:27:31;25.30;99.90
15949;DHT22;14848;50.954;6.642;2022-09-03T13:30:15;25.20;99.90
15949;DHT22;14848;50.954;6.642;2022-09-03T13:32:58;25.20;99.90
15949;DHT22;14848;50.954;6.642;2022-09-03T13:35:29;25.30;99.90
15949;DHT22;14848;50.954;6.642;2022-09-03T13:40:53;25.40;99.90
15949;DHT22;14848;50.954;6.642;2022-09-03T13:43:23;25.50;99.90
15949;DHT22;14848;50.954;6.642;2022-09-03T13:45:55;25.50;99.90
15949;DHT22;14848;50.954;6.642;2022-09-03T13:48:44;25.60;99.90
15949;DHT22;14848;50.954;6.642;2022-09-03T13:51:38;25.70;99.90
15949;DHT22;14848;50.954;6.642;2022-09-03T13:54:17;25.50;99.90
15949;DHT22;14848;50.954;6.642;2022-09-03T13:57:00;25.20;99.90
15949;DHT22;14848;50.954;6.642;2022-09-03T14:02:27;25.50;99.90
15949;DHT22;14848;50.954;6.642;2022-09-03T14:05:16;25.70;99.90
15949;DHT22;14848;50.954;6.642;2022-09-03T14:08:03;26.00;99.90
15949;DHT22;14848;50.954;6.642;2022-09-03T14:18:50;26.10;99.90
15949;DHT22;14848;50.954;6.642;2022-09-03T14:21:28;26.20;99.90
15949;DHT22;14848;50.954;6.642;2022-09-03T14:26:33;25.70;99.90
15949;DHT22;14848;50.954;6.642;2022-09-03T14:29:03;25.80;99.90
15949;DHT22;14848;50.954;6.642;2022-09-03T14:34:29;25.80;99.90
15949;DHT22;14848;50.954;6.642;2022-09-03T14:37:32;26.00;99.90
15949;DHT22;14848;50.954;6.642;2022-09-03T14:54:36;26.20;99.90
15949;DHT22;14848;50.954;6.642;2022-09-03T15:02:42;26.10;99.90
15949;DHT22;14848;50.954;6.642;2022-09-03T15:05:53;26.30;99.90
15949;DHT22;14848;50.954;6.642;2022-09-03T15:11:00;26.80;99.90
15949;DHT22;14848;50.954;6.642;2022-09-03T15:13:45;26.80;99.90
15949;DHT22;14848;50.954;6.642;2022-09-03T15:16:30;26.90;99.90
15949;DHT22;14848;50.954;6.642;2022-09-03T15:19:26;26.80;99.90
15949;DHT22;14848;50.954;6.642;2022-09-03T15:25:10;26.40;99.90
15949;DHT22;14848;50.954;6.642;2022-09-03T15:36:49;25.80;99.90
15949;DHT22;14848;50.954;6.642;2022-09-03T15:39:29;25.60;99.90
15949;DHT22;14848;50.954;6.642;2022-09-03T15:42:07;25.50;99.90
15949;DHT22;14848;50.954;6.642;2022-09-03T15:47:11;25.20;99.90
15949;DHT22;14848;50.954;6.642;2022-09-03T15:50:00;25.20;99.90
15949;DHT22;14848;50.954;6.642;2022-09-03T15:55:38;25.20;99.90
15949;DHT22;14848;50.954;6.642;2022-09-03T15:58:33;25.20;99.90
15949;DHT22;14848;50.954;6.642;2022-09-03T16:01:03;25.00;99.90
15949;DHT22;14848;50.954;6.642;2022-09-03T16:07:02;25.00;99.90
15949;DHT22;14848;50.954;6.642;2022-09-03T16:23:20;24.50;99.90
15949;DHT22;14848;50.954;6.642;2022-09-03T16:25:59;24.40;99.90
15949;DHT22;14848;50.954;6.642;2022-09-03T16:32:04;24.30;99.90
15949;DHT22;14848;50.954;6.642;2022-09-03T16:34:39;24.10;99.90
15949;DHT22;14848;50.954;6.642;2022-09-03T16:59:57;23.50;99.90
15949;DHT22;14848;50.954;6.642;2022-09-03T17:27:25;24.30;99.90
15949;DHT22;14848;50.954;6.642;2022-09-03T17:30:15;24.20;99.90
15949;DHT22;14848;50.954;6.642;2022-09-03T17:36:17;24.00;99.90
15949;DHT22;14848;50.954;6.642;2022-09-03T17:41:52;23.60;99.90
15949;DHT22;14848;50.954;6.642;2022-09-03T17:45:43;23.40;99.90
15949;DHT22;14848;50.954;6.642;2022-09-03T17:48:15;23.30;99.90
15949;DHT22;14848;50.954;6.642;2022-09-03T17:51:00;23.20;99.90
15949;DHT22;14848;50.954;6.642;2022-09-03T17:56:10;22.90;99.90
15949;DHT22;14848;50.954;6.642;2022-09-03T17:58:50;22.80;99.90
15949;DHT22;14848;50.954;6.642;2022-09-03T18:01:24;22.60;99.90
15949;DHT22;14848;50.954;6.642;2022-09-03T18:15:02;22.10;99.90
15949;DHT22;14848;50.954;6.642;2022-09-03T18:17:56;22.10;99.90
15949;DHT22;14848;50.954;6.642;2022-09-03T18:20:24;22.00;99.90
15949;DHT22;14848;50.954;6.642;2022-09-03T18:23:28;21.80;99.90
15949;DHT22;14848;50.954;6.642;2022-09-03T18:26:26;21.80;99.90
15949;DHT22;14848;50.954;6.642;2022-09-03T18:29:24;21.70;99.90
15949;DHT22;14848;50.954;6.642;2022-09-03T18:32:11;21.60;99.90
15949;DHT22;14848;50.954;6.642;2022-09-03T18:34:56;21.60;99.90
15949;DHT22;14848;50.954;6.642;2022-09-03T18:37:40;21.50;99.90
15949;DHT22;14848;50.954;6.642;2022-09-03T18:40:29;21.40;99.90
15949;DHT22;14848;50.954;6.642;2022-09-03T18:43:25;21.30;99.90
15949;DHT22;14848;50.954;6.642;2022-09-03T18:55:14;21.10;99.90
15949;DHT22;14848;50.954;6.642;2022-09-03T18:58:27;21.00;99.90
15949;DHT22;14848;50.954;6.642;2022-09-03T19:01:33;20.90;99.90
15949;DHT22;14848;50.954;6.642;2022-09-03T19:10:54;20.80;99.90
15949;DHT22;14848;50.954;6.642;2022-09-03T19:13:41;20.80;99.90
15949;DHT22;14848;50.954;6.642;2022-09-03T19:20:02;20.70;99.90
15949;DHT22;14848;50.954;6.642;2022-09-03T19:22:48;20.60;99.90
15949;DHT22;14848;50.954;6.642;2022-09-03T19:25:32;20.50;99.90
15949;DHT22;14848;50.954;6.642;2022-09-03T19:28:29;20.40;99.90
15949;DHT22;14848;50.954;6.642;2022-09-03T19:31:18;20.40;99.90
15949;DHT22;14848;50.954;6.642;2022-09-03T19:41:02;20.10;99.90
15949;DHT22;14848;50.954;6.642;2022-09-03T19:43:59;20.00;99.90
15949;DHT22;14848;50.954;6.642;2022-09-03T19:46:57;19.90;99.90
15949;DHT22;14848;50.954;6.642;2022-09-03T19:50:03;19.90;99.90
15949;DHT22;14848;50.954;6.642;2022-09-03T19:52:56;19.80;99.90
15949;DHT22;14848;50.954;6.642;2022-09-03T19:55:56;19.70;99.90
15949;DHT22;14848;50.954;6.642;2022-09-03T19:58:47;19.60;99.90
15949;DHT22;14848;50.954;6.642;2022-09-03T20:01:34;19.60;99.90
15949;DHT22;14848;50.954;6.642;2022-09-03T20:04:26;19.10;99.90
15949;DHT22;14848;50.954;6.642;2022-09-03T20:07:12;19.50;99.90
15949;DHT22;14848;50.954;6.642;2022-09-03T20:10:02;19.40;99.90
15949;DHT22;14848;50.954;6.642;2022-09-03T20:13:08;19.40;99.90
15949;DHT22;14848;50.954;6.642;2022-09-03T20:16:16;19.30;99.90
15949;DHT22;14848;50.954;6.642;2022-09-03T20:18:54;19.20;99.90
15949;DHT22;14848;50.954;6.642;2022-09-03T20:24:35;19.10;99.90
15949;DHT22;14848;50.954;6.642;2022-09-03T20:30:04;19.10;99.90
15949;DHT22;14848;50.954;6.642;2022-09-03T20:52:02;18.80;99.90
15949;DHT22;14848;50.954;6.642;2022-09-03T20:54:41;18.70;99.90
15949;DHT22;14848;50.954;6.642;2022-09-03T21:00:15;18.70;99.90
15949;DHT22;14848;50.954;6.642;2022-09-03T21:14:29;18.60;99.90
15949;DHT22;14848;50.954;6.642;2022-09-03T21:17:23;19.10;99.90
15949;DHT22;14848;50.954;6.642;2022-09-03T21:25:07;18.40;99.90
15949;DHT22;14848;50.954;6.642;2022-09-03T21:30:27;18.40;99.90
15949;DHT22;14848;50.954;6.642;2022-09-03T21:33:04;18.40;99.90
15949;DHT22;14848;50.954;6.642;2022-09-03T21:35:40;18.30;99.90
15949;DHT22;14848;50.954;6.642;2022-09-03T21:38:08;18.30;99.90
15949;DHT22;14848;50.954;6.642;2022-09-03T21:40:42;18.20;99.90
15949;DHT22;14848;50.954;6.642;2022-09-03T21:43:17;18.20;99.90
15949;DHT22;14848;50.954;6.642;2022-09-03T21:48:37;18.10;99.90
15949;DHT22;14848;50.954;6.642;2022-09-03T21:51:29;18.00;99.90
15949;DHT22;14848;50.954;6.642;2022-09-03T22:04:52;17.80;99.90
15949;DHT22;14848;50.954;6.642;2022-09-03T22:15:11;17.90;99.90
15949;DHT22;14848;50.954;6.642;2022-09-03T22:17:47;17.80;99.90
15949;DHT22;14848;50.954;6.642;2022-09-03T22:20:21;17.80;99.90
15949;DHT22;14848;50.954;6.642;2022-09-03T22:22:54;17.70;99.90
15949;DHT22;14848;50.954;6.642;2022-09-03T22:30:23;17.60;99.90
15949;DHT22;14848;50.954;6.642;2022-09-03T22:36:13;17.50;99.90
15949;DHT22;14848;50.954;6.642;2022-09-03T22:47:29;17.20;99.90
15949;DHT22;14848;50.954;6.642;2022-09-03T22:52:44;17.00;99.90
15949;DHT22;14848;50.954;6.642;2022-09-03T22:55:23;17.00;99.90
15949;DHT22;14848;50.954;6.642;2022-09-03T23:00:15;16.90;99.90
15949;DHT22;14848;50.954;6.642;2022-09-03T23:02:46;16.80;99.90
15949;DHT22;14848;50.954;6.642;2022-09-03T23:05:26;16.80;99.90
15949;DHT22;14848;50.954;6.642;2022-09-03T23:10:23;16.70;99.90
15949;DHT22;14848;50.954;6.642;2022-09-03T23:15:24;16.80;99.90
15949;DHT22;14848;50.954;6.642;2022-09-03T23:18:10;16.70;99.90
15949;DHT22;14848;50.954;6.642;2022-09-03T23:20:42;16.70;99.90
15949;DHT22;14848;50.954;6.642;2022-09-03T23:23:23;16.60;99.90
15949;DHT22;14848;50.954;6.642;2022-09-03T23:28:35;16.70;99.90
15949;DHT22;14848;50.954;6.642;2022-09-03T23:31:17;16.60;99.90
15949;DHT22;14848;50.954;6.642;2022-09-03T23:33:43;16.60;99.90
15949;DHT22;14848;50.954;6.642;2022-09-03T23:47:42;16.50;99.90
15949;DHT22;14848;50.954;6.642;2022-09-03T23:58:10;16.60;99.90
